createdAt,value
2022-08-01T00:00:46.391Z,12
2022-08-01T00:01:46.381Z,12
2022-08-01T00:02:46.568Z,13
2022-08-01T00:03:46.379Z,13
2022-08-01T00:04:46.388Z,12
2022-08-01T00:05:46.428Z,12
2022-08-01T00:06:46.418Z,12
2022-08-01T00:08:46.381Z,12
2022-08-01T00:09:46.389Z,14
2022-08-01T00:10:46.390Z,14
2022-08-01T00:11:46.391Z,14
2022-08-01T00:12:46.422Z,13
2022-08-01T00:13:46.389Z,14
2022-08-01T00:14:46.399Z,14
2022-08-01T00:15:54.017Z,13
2022-08-01T00:16:46.395Z,14
2022-08-01T00:17:46.401Z,13
2022-08-01T00:18:46.404Z,13
2022-08-01T00:19:46.385Z,13
2022-08-01T00:20:46.397Z,14
2022-08-01T00:21:52.207Z,12
2022-08-01T00:22:46.395Z,13
2022-08-01T00:23:46.394Z,12
2022-08-01T00:24:46.468Z,13
2022-08-01T00:25:46.404Z,13
2022-08-01T00:26:46.393Z,13
2022-08-01T00:27:46.776Z,13
2022-08-01T00:28:46.400Z,13
2022-08-01T00:30:11.729Z,13
2022-08-01T00:30:46.407Z,13
2022-08-01T00:31:46.462Z,13
2022-08-01T00:32:46.407Z,13
2022-08-01T00:33:46.402Z,13
2022-08-01T00:34:46.406Z,13
2022-08-01T00:35:46.405Z,13
2022-08-01T00:37:46.409Z,13
2022-08-01T00:38:46.441Z,13
2022-08-01T00:39:46.407Z,13
2022-08-01T00:40:46.396Z,13
2022-08-01T00:41:46.437Z,14
2022-08-01T00:42:46.407Z,13
2022-08-01T00:43:46.400Z,13
2022-08-01T00:44:46.407Z,13
2022-08-01T00:45:46.451Z,13
2022-08-01T00:46:46.415Z,13
2022-08-01T00:47:46.416Z,14
2022-08-01T00:48:46.401Z,12
2022-08-01T00:50:46.409Z,14
2022-08-01T00:51:46.404Z,14
2022-08-01T00:52:51.581Z,13
2022-08-01T00:53:51.428Z,12
2022-08-01T00:54:46.408Z,13
2022-08-01T00:55:46.410Z,13
2022-08-01T00:56:46.409Z,12
2022-08-01T00:58:46.412Z,12
2022-08-01T00:59:46.413Z,13
2022-08-01T01:00:53.654Z,12
2022-08-01T01:01:46.768Z,11
2022-08-01T01:02:46.408Z,12
2022-08-01T01:03:58.665Z,12
2022-08-01T01:04:46.454Z,12
2022-08-01T01:05:46.419Z,12
2022-08-01T01:06:46.423Z,12
2022-08-01T01:07:49.759Z,11
2022-08-01T01:08:46.416Z,11
2022-08-01T01:09:46.424Z,11
2022-08-01T01:11:46.464Z,11
2022-08-01T01:12:49.997Z,11
2022-08-01T01:13:50.043Z,11
2022-08-01T01:14:46.447Z,10
2022-08-01T01:15:46.419Z,11
2022-08-01T01:16:46.446Z,11
2022-08-01T01:17:51.277Z,10
2022-08-01T01:18:46.422Z,10
2022-08-01T01:19:46.432Z,11
2022-08-01T01:20:46.430Z,10
2022-08-01T01:21:46.441Z,10
2022-08-01T01:23:46.481Z,11
2022-08-01T01:24:46.433Z,10
2022-08-01T01:25:46.430Z,10
2022-08-01T01:26:46.440Z,11
2022-08-01T01:27:46.430Z,11
2022-08-01T01:28:46.431Z,10
2022-08-01T01:29:58.493Z,10
2022-08-01T01:30:46.425Z,11
2022-08-01T01:32:46.431Z,11
2022-08-01T01:33:47.539Z,11
2022-08-01T01:34:46.436Z,10
2022-08-01T01:35:46.435Z,10
2022-08-01T01:36:46.435Z,11
2022-08-01T01:37:46.488Z,11
2022-08-01T01:38:46.432Z,11
2022-08-01T01:39:54.007Z,11
2022-08-01T01:40:46.438Z,11
2022-08-01T01:41:46.673Z,10
2022-08-01T01:42:46.441Z,10
2022-08-01T01:43:46.441Z,9
2022-08-01T01:44:46.468Z,11
2022-08-01T01:45:46.430Z,11
2022-08-01T01:46:46.441Z,10
2022-08-01T01:47:46.451Z,10
2022-08-01T01:48:46.664Z,10
2022-08-01T01:49:46.439Z,10
2022-08-01T01:50:46.440Z,10
2022-08-01T01:52:00.004Z,10
2022-08-01T01:53:46.436Z,11
2022-08-01T01:54:46.442Z,11
2022-08-01T01:55:49.272Z,11
2022-08-01T01:56:46.443Z,11
2022-08-01T01:57:46.440Z,11
2022-08-01T01:58:46.519Z,12
2022-08-01T01:59:46.444Z,11
2022-08-01T02:00:46.446Z,13
2022-08-01T02:02:05.664Z,12
2022-08-01T02:02:46.590Z,12
2022-08-01T02:03:46.451Z,11
2022-08-01T02:04:46.446Z,13
2022-08-01T02:05:46.451Z,12
2022-08-01T02:06:46.456Z,12
2022-08-01T02:07:46.452Z,12
2022-08-01T02:08:46.458Z,13
2022-08-01T02:09:46.448Z,12
2022-08-01T02:10:46.447Z,12
2022-08-01T02:11:59.176Z,13
2022-08-01T02:12:46.479Z,12
2022-08-01T02:14:46.463Z,11
2022-08-01T02:16:00.164Z,12
2022-08-01T02:16:46.450Z,12
2022-08-01T02:17:46.460Z,11
2022-08-01T02:18:46.453Z,12
2022-08-01T02:19:46.464Z,12
2022-08-01T02:20:46.459Z,12
2022-08-01T02:21:46.459Z,12
2022-08-01T02:22:46.467Z,11
2022-08-01T02:23:46.453Z,11
2022-08-01T02:24:46.525Z,12
2022-08-01T02:26:11.126Z,12
2022-08-01T02:26:46.470Z,11
2022-08-01T02:27:46.459Z,11
2022-08-01T02:28:46.465Z,11
2022-08-01T02:29:46.464Z,10
2022-08-01T02:30:46.480Z,12
2022-08-01T02:31:46.465Z,12
2022-08-01T02:32:46.470Z,11
2022-08-01T02:33:46.494Z,11
2022-08-01T02:34:46.465Z,11
2022-08-01T02:36:31.110Z,12
2022-08-01T02:36:46.474Z,11
2022-08-01T02:37:46.923Z,12
2022-08-01T02:38:46.536Z,12
2022-08-01T02:39:46.491Z,12
2022-08-01T02:40:46.483Z,12
2022-08-01T02:41:46.476Z,13
2022-08-01T02:42:46.482Z,12
2022-08-01T02:43:46.474Z,12
2022-08-01T02:44:46.470Z,12
2022-08-01T02:46:46.496Z,13
2022-08-01T02:47:46.477Z,12
2022-08-01T02:48:46.487Z,13
2022-08-01T02:49:46.481Z,12
2022-08-01T02:50:46.480Z,13
2022-08-01T02:51:46.478Z,12
2022-08-01T02:52:46.535Z,12
2022-08-01T02:53:46.480Z,12
2022-08-01T02:54:46.482Z,12
2022-08-01T02:55:46.478Z,12
2022-08-01T02:56:46.483Z,12
2022-08-01T02:57:52.188Z,13
2022-08-01T02:58:46.480Z,12
2022-08-01T02:59:46.481Z,13
2022-08-01T03:01:46.636Z,13
2022-08-01T03:02:46.484Z,13
2022-08-01T03:03:46.480Z,13
2022-08-01T03:04:46.479Z,13
2022-08-01T03:05:46.496Z,13
2022-08-01T03:06:46.485Z,13
2022-08-01T03:07:48.641Z,13
2022-08-01T03:08:46.546Z,13
2022-08-01T03:09:46.489Z,13
2022-08-01T03:10:46.492Z,13
2022-08-01T03:11:46.491Z,13
2022-08-01T03:12:48.288Z,12
2022-08-01T03:13:46.488Z,14
2022-08-01T03:14:46.490Z,12
2022-08-01T03:15:46.543Z,12
2022-08-01T03:16:46.493Z,12
2022-08-01T03:17:46.491Z,12
2022-08-01T03:18:46.500Z,12
2022-08-01T03:19:46.491Z,12
2022-08-01T03:20:46.499Z,12
2022-08-01T03:21:46.488Z,11
2022-08-01T03:22:46.573Z,12
2022-08-01T03:23:46.495Z,13
2022-08-01T03:24:46.493Z,11
2022-08-01T03:25:46.493Z,12
2022-08-01T03:26:46.500Z,12
2022-08-01T03:27:46.499Z,10
2022-08-01T03:28:46.507Z,11
2022-08-01T03:29:46.502Z,11
2022-08-01T03:30:46.499Z,11
2022-08-01T03:31:46.502Z,11
2022-08-01T03:32:46.503Z,11
2022-08-01T03:33:46.506Z,11
2022-08-01T03:34:46.500Z,10
2022-08-01T03:36:46.514Z,10
2022-08-01T03:38:13.566Z,10
2022-08-01T03:38:46.501Z,9
2022-08-01T03:39:46.505Z,9
2022-08-01T03:40:46.508Z,10
2022-08-01T03:41:46.504Z,10
2022-08-01T03:42:46.731Z,10
2022-08-01T03:43:46.497Z,10
2022-08-01T03:44:46.735Z,10
2022-08-01T03:45:46.506Z,10
2022-08-01T03:46:46.514Z,10
2022-08-01T03:47:46.507Z,10
2022-08-01T03:48:46.510Z,10
2022-08-01T03:49:46.508Z,11
2022-08-01T03:50:46.541Z,10
2022-08-01T03:51:46.510Z,9
2022-08-01T03:52:46.518Z,10
2022-08-01T03:53:46.508Z,10
2022-08-01T03:54:46.512Z,10
2022-08-01T03:55:46.546Z,10
2022-08-01T03:56:46.515Z,10
2022-08-01T03:57:46.520Z,10
2022-08-01T03:58:49.948Z,11
2022-08-01T03:59:46.522Z,10
2022-08-01T04:01:46.587Z,9
2022-08-01T04:02:46.525Z,8
2022-08-01T04:03:46.515Z,10
2022-08-01T04:04:46.518Z,10
2022-08-01T04:05:46.517Z,10
2022-08-01T04:06:46.517Z,10
2022-08-01T04:08:46.522Z,10
2022-08-01T04:09:46.530Z,10
2022-08-01T04:10:46.516Z,11
2022-08-01T04:11:46.521Z,10
2022-08-01T04:12:46.522Z,10
2022-08-01T04:13:46.530Z,10
2022-08-01T04:14:46.631Z,10
2022-08-01T04:15:46.535Z,9
2022-08-01T04:16:46.571Z,9
2022-08-01T04:17:46.519Z,10
2022-08-01T04:18:46.532Z,10
2022-08-01T04:19:46.549Z,9
2022-08-01T04:20:46.534Z,10
2022-08-01T04:21:46.522Z,10
2022-08-01T04:22:46.553Z,9
2022-08-01T04:23:46.530Z,9
2022-08-01T04:24:46.533Z,10
2022-08-01T04:25:46.536Z,10
2022-08-01T04:26:46.535Z,10
2022-08-01T04:27:50.828Z,9
2022-08-01T04:29:46.533Z,9
2022-08-01T04:30:46.536Z,9
2022-08-01T04:31:46.538Z,9
2022-08-01T04:33:46.541Z,9
2022-08-01T04:34:46.556Z,9
2022-08-01T04:36:01.477Z,9
2022-08-01T04:36:46.538Z,9
2022-08-01T04:37:46.536Z,9
2022-08-01T04:38:46.539Z,9
2022-08-01T04:39:50.453Z,9
2022-08-01T04:40:46.606Z,9
2022-08-01T04:41:46.542Z,9
2022-08-01T04:42:46.543Z,9
2022-08-01T04:43:46.544Z,9
2022-08-01T04:44:46.549Z,8
2022-08-01T04:45:46.545Z,9
2022-08-01T04:46:46.545Z,9
2022-08-01T04:47:46.583Z,9
2022-08-01T04:48:46.540Z,9
2022-08-01T04:49:48.742Z,9
2022-08-01T04:50:46.545Z,10
2022-08-01T04:51:46.563Z,10
2022-08-01T04:52:46.551Z,10
2022-08-01T04:54:46.549Z,9
2022-08-01T04:55:46.546Z,10
2022-08-01T04:56:46.545Z,9
2022-08-01T04:57:46.554Z,9
2022-08-01T04:58:46.547Z,9
2022-08-01T04:59:46.553Z,10
2022-08-01T05:00:46.555Z,10
2022-08-01T05:01:46.642Z,10
2022-08-01T05:02:46.546Z,10
2022-08-01T05:04:46.556Z,10
2022-08-01T05:05:46.554Z,9
2022-08-01T05:06:46.564Z,9
2022-08-01T05:07:46.549Z,9
2022-08-01T05:08:46.557Z,9
2022-08-01T05:09:46.555Z,9
2022-08-01T05:10:46.562Z,10
2022-08-01T05:11:46.557Z,11
2022-08-01T05:12:46.555Z,10
2022-08-01T05:13:46.611Z,10
2022-08-01T05:15:46.563Z,11
2022-08-01T05:16:46.559Z,10
2022-08-01T05:17:46.559Z,11
2022-08-01T05:18:46.569Z,11
2022-08-01T05:19:46.562Z,10
2022-08-01T05:20:46.624Z,11
2022-08-01T05:21:46.570Z,10
2022-08-01T05:22:46.574Z,11
2022-08-01T05:23:46.559Z,11
2022-08-01T05:24:46.566Z,11
2022-08-01T05:25:56.349Z,11
2022-08-01T05:26:46.565Z,11
2022-08-01T05:27:46.572Z,11
2022-08-01T05:28:46.568Z,11
2022-08-01T05:29:46.567Z,11
2022-08-01T05:30:46.592Z,11
2022-08-01T05:31:46.579Z,10
2022-08-01T05:32:46.568Z,11
2022-08-01T05:33:46.570Z,10
2022-08-01T05:34:46.576Z,11
2022-08-01T05:35:48.987Z,11
2022-08-01T05:36:46.567Z,12
2022-08-01T05:37:46.577Z,10
2022-08-01T05:39:46.592Z,10
2022-08-01T05:40:46.577Z,11
2022-08-01T05:41:46.574Z,11
2022-08-01T05:43:46.578Z,10
2022-08-01T05:44:46.579Z,10
2022-08-01T05:45:46.583Z,11
2022-08-01T05:46:46.575Z,11
2022-08-01T05:47:46.573Z,11
2022-08-01T05:48:46.592Z,11
2022-08-01T05:49:46.573Z,10
2022-08-01T05:50:46.587Z,11
2022-08-01T05:51:46.572Z,11
2022-08-01T05:52:46.574Z,11
2022-08-01T05:53:46.579Z,10
2022-08-01T05:54:46.593Z,11
2022-08-01T05:55:46.584Z,10
2022-08-01T05:56:46.588Z,11
2022-08-01T05:57:46.589Z,11
2022-08-01T05:58:46.585Z,10
2022-08-01T05:59:46.591Z,11
2022-08-01T06:00:46.593Z,10
2022-08-01T06:01:46.740Z,10
2022-08-01T06:02:46.621Z,10
2022-08-01T06:04:46.582Z,10
2022-08-01T06:05:46.582Z,9
2022-08-01T06:06:46.593Z,10
2022-08-01T06:07:46.646Z,10
2022-08-01T06:08:46.591Z,10
2022-08-01T06:09:46.625Z,9
2022-08-01T06:10:46.611Z,10
2022-08-01T06:11:46.583Z,11
2022-08-01T06:12:46.983Z,10
2022-08-01T06:14:46.647Z,10
2022-08-01T06:15:46.593Z,10
2022-08-01T06:16:46.598Z,9
2022-08-01T06:17:46.594Z,9
2022-08-01T06:18:46.588Z,9
2022-08-01T06:19:46.602Z,8
2022-08-01T06:20:46.593Z,8
2022-08-01T06:21:46.596Z,8
2022-08-01T06:23:46.590Z,7
2022-08-01T06:24:46.589Z,7
2022-08-01T06:25:46.595Z,7
2022-08-01T06:26:46.600Z,7
2022-08-01T06:27:46.596Z,6
2022-08-01T06:28:46.684Z,7
2022-08-01T06:29:51.116Z,7
2022-08-01T06:30:46.604Z,7
2022-08-01T06:31:46.601Z,7
2022-08-01T06:32:46.605Z,7
2022-08-01T06:33:46.598Z,6
2022-08-01T06:34:46.606Z,6
2022-08-01T06:35:46.605Z,6
2022-08-01T06:36:46.599Z,6
2022-08-01T06:37:46.604Z,6
2022-08-01T06:39:46.625Z,6
2022-08-01T06:40:46.616Z,6
2022-08-01T06:41:46.631Z,6
2022-08-01T06:42:46.759Z,6
2022-08-01T06:44:46.613Z,5
2022-08-01T06:45:46.616Z,6
2022-08-01T06:47:50.644Z,5
2022-08-01T06:48:46.614Z,5
2022-08-01T06:49:46.674Z,5
2022-08-01T06:50:46.614Z,5
2022-08-01T06:51:46.611Z,5
2022-08-01T06:52:46.613Z,5
2022-08-01T06:53:46.625Z,5
2022-08-01T06:54:46.622Z,5
2022-08-01T06:55:46.614Z,5
2022-08-01T06:56:46.678Z,5
2022-08-01T06:57:46.620Z,5
2022-08-01T06:58:46.615Z,6
2022-08-01T06:59:54.525Z,5
2022-08-01T07:00:46.657Z,5
2022-08-01T07:01:46.619Z,5
2022-08-01T07:02:46.615Z,5
2022-08-01T07:03:53.299Z,4
2022-08-01T07:05:46.613Z,4
2022-08-01T07:06:46.622Z,4
2022-08-01T07:07:46.624Z,3
2022-08-01T07:08:46.616Z,4
2022-08-01T07:09:46.626Z,4
2022-08-01T07:10:46.673Z,4
2022-08-01T07:11:46.630Z,3
2022-08-01T07:12:46.625Z,3
2022-08-01T07:13:46.619Z,4
2022-08-01T07:14:46.629Z,4
2022-08-01T07:15:46.633Z,4
2022-08-01T07:16:46.631Z,4
2022-08-01T07:17:46.692Z,4
2022-08-01T07:18:46.624Z,4
2022-08-01T07:19:46.917Z,4
2022-08-01T07:20:52.626Z,4
2022-08-01T07:21:46.630Z,4
2022-08-01T07:22:47.624Z,4
2022-08-01T07:23:46.628Z,4
2022-08-01T07:24:46.694Z,4
2022-08-01T07:25:50.711Z,4
2022-08-01T07:26:54.004Z,4
2022-08-01T07:27:46.738Z,4
2022-08-01T07:28:46.637Z,4
2022-08-01T07:29:46.633Z,4
2022-08-01T07:30:46.634Z,4
2022-08-01T07:31:46.702Z,4
2022-08-01T07:32:46.634Z,4
2022-08-01T07:33:48.762Z,4
2022-08-01T07:34:46.651Z,3
2022-08-01T07:35:46.635Z,3
2022-08-01T07:36:46.636Z,3
2022-08-01T07:37:49.199Z,3
2022-08-01T07:39:46.642Z,3
2022-08-01T07:40:46.643Z,2
2022-08-01T07:42:07.079Z,3
2022-08-01T07:42:46.648Z,3
2022-08-01T07:43:54.771Z,3
2022-08-01T07:44:46.652Z,3
2022-08-01T07:45:46.763Z,3
2022-08-01T07:46:46.644Z,3
2022-08-01T07:47:46.663Z,3
2022-08-01T07:48:46.643Z,3
2022-08-01T07:49:46.660Z,2
2022-08-01T07:50:46.645Z,3
2022-08-01T07:52:03.172Z,3
2022-08-01T07:52:46.706Z,3
2022-08-01T07:53:46.644Z,2
2022-08-01T07:54:51.805Z,2
2022-08-01T07:55:46.652Z,2
2022-08-01T07:56:46.650Z,2
2022-08-01T07:57:46.851Z,2
2022-08-01T07:58:46.651Z,2
2022-08-01T08:01:46.698Z,2
2022-08-01T08:02:46.663Z,2
2022-08-01T08:03:46.651Z,2
2022-08-01T08:04:49.072Z,3
2022-08-01T08:05:51.636Z,3
2022-08-01T08:06:46.651Z,3
2022-08-01T08:07:46.664Z,2
2022-08-01T08:08:46.653Z,2
2022-08-01T08:10:46.664Z,2
2022-08-01T08:11:48.180Z,2
2022-08-01T08:12:46.653Z,2
2022-08-01T08:13:46.663Z,2
2022-08-01T08:14:46.673Z,2
2022-08-01T08:15:48.232Z,2
2022-08-01T08:16:46.671Z,2
2022-08-01T08:18:46.661Z,2
2022-08-01T08:19:46.659Z,2
2022-08-01T08:21:46.670Z,2
2022-08-01T08:22:46.664Z,2
2022-08-01T08:23:46.672Z,2
2022-08-01T08:24:47.113Z,2
2022-08-01T08:25:46.679Z,2
2022-08-01T08:26:46.683Z,2
2022-08-01T08:27:46.721Z,2
2022-08-01T08:28:46.673Z,2
2022-08-01T08:29:46.672Z,2
2022-08-01T08:30:46.672Z,2
2022-08-01T08:31:51.459Z,2
2022-08-01T08:32:46.677Z,2
2022-08-01T08:33:46.672Z,2
2022-08-01T08:34:46.677Z,2
2022-08-01T08:35:54.000Z,2
2022-08-01T08:36:47.698Z,2
2022-08-01T08:37:47.664Z,2
2022-08-01T08:38:46.684Z,2
2022-08-01T08:39:46.683Z,2
2022-08-01T08:40:46.680Z,2
2022-08-01T08:42:46.695Z,2
2022-08-01T08:43:46.699Z,2
2022-08-01T08:44:46.701Z,2
2022-08-01T08:45:58.161Z,2
2022-08-01T08:46:46.747Z,2
2022-08-01T08:48:46.719Z,2
2022-08-01T08:49:46.760Z,2
2022-08-01T08:50:46.690Z,2
2022-08-01T08:51:46.688Z,2
2022-08-01T08:53:46.725Z,2
2022-08-01T08:54:46.694Z,2
2022-08-01T08:55:56.403Z,2
2022-08-01T08:56:46.690Z,2
2022-08-01T08:57:46.691Z,2
2022-08-01T08:58:46.691Z,2
2022-08-01T08:59:46.689Z,2
2022-08-01T09:00:46.772Z,2
2022-08-01T09:01:46.694Z,2
2022-08-01T09:03:46.702Z,2
2022-08-01T09:04:46.702Z,2
2022-08-01T09:05:46.699Z,2
2022-08-01T09:06:46.693Z,2
2022-08-01T09:07:46.754Z,2
2022-08-01T09:08:46.704Z,3
2022-08-01T09:09:46.703Z,2
2022-08-01T09:10:46.698Z,2
2022-08-01T09:12:46.717Z,2
2022-08-01T09:14:46.737Z,3
2022-08-01T09:15:46.697Z,2
2022-08-01T09:16:49.077Z,3
2022-08-01T09:17:46.720Z,2
2022-08-01T09:18:53.646Z,2
2022-08-01T09:19:46.707Z,2
2022-08-01T09:20:46.712Z,2
2022-08-01T09:21:46.712Z,2
2022-08-01T09:22:47.928Z,2
2022-08-01T09:24:46.713Z,2
2022-08-01T09:25:47.908Z,2
2022-08-01T09:26:46.716Z,2
2022-08-01T09:27:46.725Z,2
2022-08-01T09:28:48.011Z,2
2022-08-01T09:29:49.682Z,2
2022-08-01T09:30:46.709Z,1
2022-08-01T09:31:47.514Z,1
2022-08-01T09:32:46.719Z,2
2022-08-01T09:33:46.719Z,1
2022-08-01T09:35:46.739Z,2
2022-08-01T09:36:46.717Z,1
2022-08-01T09:37:47.389Z,1
2022-08-01T09:38:50.924Z,1
2022-08-01T09:39:46.719Z,2
2022-08-01T09:40:46.774Z,1
2022-08-01T09:41:46.727Z,2
2022-08-01T09:42:46.717Z,2
2022-08-01T09:43:46.722Z,2
2022-08-01T09:45:50.471Z,2
2022-08-01T09:46:46.724Z,2
2022-08-01T09:47:46.728Z,1
2022-08-01T09:48:49.318Z,2
2022-08-01T09:49:50.402Z,2
2022-08-01T09:50:46.727Z,2
2022-08-01T09:51:58.545Z,2
2022-08-01T09:52:46.732Z,2
2022-08-01T09:53:50.975Z,2
2022-08-01T09:54:46.777Z,2
2022-08-01T09:56:46.734Z,2
2022-08-01T09:57:46.731Z,1
2022-08-01T09:58:46.731Z,2
2022-08-01T09:59:58.299Z,2
2022-08-01T10:00:46.825Z,1
2022-08-01T10:01:46.811Z,2
2022-08-01T10:02:46.743Z,1
2022-08-01T10:03:46.810Z,1
2022-08-01T10:04:46.745Z,2
2022-08-01T10:06:46.742Z,1
2022-08-01T10:07:46.735Z,1
2022-08-01T10:08:46.795Z,1
2022-08-01T10:09:46.745Z,1
2022-08-01T10:10:46.744Z,1
2022-08-01T10:11:46.736Z,1
2022-08-01T10:12:47.733Z,1
2022-08-01T10:13:46.738Z,1
2022-08-01T10:14:46.909Z,1
2022-08-01T10:15:46.811Z,1
2022-08-01T10:17:51.260Z,1
2022-08-01T10:18:46.750Z,1
2022-08-01T10:19:46.757Z,1
2022-08-01T10:20:46.742Z,1
2022-08-01T10:21:58.381Z,1
2022-08-01T10:22:46.807Z,1
2022-08-01T10:23:46.744Z,1
2022-08-01T10:24:46.752Z,1
2022-08-01T10:25:47.391Z,1
2022-08-01T10:27:46.748Z,1
2022-08-01T10:28:46.762Z,1
2022-08-01T10:30:05.799Z,1
2022-08-01T10:30:46.747Z,1
2022-08-01T10:31:50.371Z,1
2022-08-01T10:32:50.530Z,1
2022-08-01T10:33:51.575Z,1
2022-08-01T10:34:46.754Z,1
2022-08-01T10:35:48.074Z,1
2022-08-01T10:36:46.820Z,1
2022-08-01T10:38:46.758Z,1
2022-08-01T10:39:46.993Z,1
2022-08-01T10:40:46.759Z,1
2022-08-01T10:41:46.765Z,1
2022-08-01T10:42:46.762Z,1
2022-08-01T10:43:47.126Z,1
2022-08-01T10:44:46.761Z,1
2022-08-01T10:46:46.762Z,1
2022-08-01T10:47:50.020Z,1
2022-08-01T10:48:46.757Z,1
2022-08-01T10:49:46.759Z,1
2022-08-01T10:50:48.490Z,1
2022-08-01T10:51:52.966Z,1
2022-08-01T10:53:46.772Z,1
2022-08-01T10:54:52.750Z,1
2022-08-01T10:55:46.787Z,1
2022-08-01T10:56:46.772Z,1
2022-08-01T10:57:52.479Z,1
2022-08-01T10:58:46.777Z,1
2022-08-01T10:59:49.651Z,1
2022-08-01T11:00:46.765Z,1
2022-08-01T11:01:46.803Z,1
2022-08-01T11:02:46.772Z,1
2022-08-01T11:03:57.537Z,1
2022-08-01T11:04:46.776Z,1
2022-08-01T11:05:46.787Z,1
2022-08-01T11:07:46.834Z,1
2022-08-01T11:08:46.772Z,1
2022-08-01T11:09:51.385Z,1
2022-08-01T11:10:46.773Z,1
2022-08-01T11:11:46.780Z,1
2022-08-01T11:12:46.778Z,1
2022-08-01T11:13:46.791Z,1
2022-08-01T11:14:55.771Z,1
2022-08-01T11:15:50.026Z,1
2022-08-01T11:16:46.852Z,1
2022-08-01T11:17:46.782Z,1
2022-08-01T11:18:46.782Z,1
2022-08-01T11:19:46.781Z,1
2022-08-01T11:20:46.784Z,1
2022-08-01T11:21:57.157Z,1
2022-08-01T11:22:46.789Z,1
2022-08-01T11:23:46.848Z,1
2022-08-01T11:24:46.803Z,1
2022-08-01T11:25:58.367Z,1
2022-08-01T11:26:46.804Z,1
2022-08-01T11:29:11.040Z,1
2022-08-01T11:29:46.798Z,1
2022-08-01T11:30:46.792Z,1
2022-08-01T11:31:46.796Z,1
2022-08-01T11:33:06.596Z,1
2022-08-01T11:33:47.233Z,1
2022-08-01T11:34:46.796Z,1
2022-08-01T11:35:46.792Z,1
2022-08-01T11:37:09.876Z,1
2022-08-01T11:37:46.837Z,1
2022-08-01T11:38:46.797Z,1
2022-08-01T11:39:46.801Z,1
2022-08-01T11:41:46.793Z,1
2022-08-01T11:42:46.799Z,1
2022-08-01T11:43:46.805Z,1
2022-08-01T11:44:46.866Z,1
2022-08-01T11:45:46.795Z,1
2022-08-01T11:46:46.817Z,1
2022-08-01T11:47:46.830Z,1
2022-08-01T11:48:46.801Z,1
2022-08-01T11:49:49.014Z,1
2022-08-01T11:50:46.823Z,1
2022-08-01T11:51:46.871Z,1
2022-08-01T11:52:46.803Z,1
2022-08-01T11:53:46.805Z,1
2022-08-01T11:54:46.807Z,1
2022-08-01T11:56:46.808Z,1
2022-08-01T11:57:48.609Z,1
2022-08-01T11:58:46.847Z,1
2022-08-01T11:59:49.361Z,1
2022-08-01T12:00:47.122Z,1
2022-08-01T12:02:46.892Z,1
2022-08-01T12:03:46.813Z,1
2022-08-01T12:04:46.817Z,1
2022-08-01T12:05:46.817Z,1
2022-08-01T12:06:46.812Z,1
2022-08-01T12:07:46.816Z,1
2022-08-01T12:08:46.822Z,1
2022-08-01T12:09:46.822Z,1
2022-08-01T12:10:49.403Z,1
2022-08-01T12:11:46.818Z,1
2022-08-01T12:12:46.871Z,1
2022-08-01T12:13:46.824Z,1
2022-08-01T12:14:46.835Z,1
2022-08-01T12:15:47.305Z,1
2022-08-01T12:17:57.439Z,1
2022-08-01T12:18:46.830Z,1
2022-08-01T12:19:46.893Z,1
2022-08-01T12:20:56.528Z,1
2022-08-01T12:23:46.837Z,1
2022-08-01T13:10:46.926Z,1
2022-08-01T13:24:46.935Z,1
2022-08-01T13:31:46.948Z,1
2022-08-01T13:38:46.983Z,1
2022-08-01T13:45:46.932Z,1
2022-08-01T14:06:46.957Z,1
2022-08-01T14:13:47.046Z,1
2022-08-01T14:20:46.947Z,2
2022-08-01T14:22:46.941Z,2
2022-08-01T14:23:46.922Z,2
2022-08-01T14:26:46.927Z,2
2022-08-01T14:27:46.930Z,1
2022-08-01T14:30:03.315Z,2
2022-08-01T14:31:46.939Z,2
2022-08-01T14:32:46.926Z,2
2022-08-01T14:33:46.930Z,2
2022-08-01T14:34:46.929Z,2
2022-08-01T14:36:06.630Z,2
2022-08-01T14:36:46.922Z,2
2022-08-01T14:37:46.927Z,2
2022-08-01T14:38:46.955Z,2
2022-08-01T14:39:53.354Z,2
2022-08-01T14:40:46.929Z,2
2022-08-01T14:41:46.934Z,2
2022-08-01T14:42:46.930Z,2
2022-08-01T14:43:46.941Z,2
2022-08-01T14:44:49.748Z,2
2022-08-01T14:45:46.929Z,2
2022-08-01T14:46:57.689Z,2
2022-08-01T14:47:46.937Z,2
2022-08-01T14:48:46.933Z,2
2022-08-01T14:49:47.021Z,2
2022-08-01T14:50:46.941Z,2
2022-08-01T14:51:46.938Z,2
2022-08-01T14:52:46.942Z,2
2022-08-01T14:53:52.973Z,2
2022-08-01T14:54:46.942Z,1
2022-08-01T14:55:46.952Z,2
2022-08-01T14:56:46.944Z,2
2022-08-01T14:57:46.938Z,1
2022-08-01T14:58:46.940Z,1
2022-08-01T14:59:46.941Z,2
2022-08-01T15:00:47.113Z,2
2022-08-01T15:01:46.938Z,2
2022-08-01T15:02:46.948Z,2
2022-08-01T15:03:46.947Z,2
2022-08-01T15:04:46.947Z,2
2022-08-01T15:05:46.945Z,1
2022-08-01T15:06:46.942Z,2
2022-08-01T15:07:52.259Z,2
2022-08-01T15:08:46.951Z,1
2022-08-01T15:09:46.948Z,2
2022-08-01T15:10:46.956Z,2
2022-08-01T15:11:46.954Z,2
2022-08-01T15:12:50.594Z,2
2022-08-01T15:13:46.952Z,2
2022-08-01T15:14:46.956Z,2
2022-08-01T15:15:46.954Z,2
2022-08-01T15:16:46.947Z,2
2022-08-01T15:17:46.955Z,2
2022-08-01T15:18:46.955Z,2
2022-08-01T15:19:46.956Z,2
2022-08-01T15:20:46.953Z,2
2022-08-01T15:21:47.018Z,2
2022-08-01T15:22:46.968Z,2
2022-08-01T15:23:46.964Z,2
2022-08-01T15:24:46.977Z,2
2022-08-01T15:25:46.955Z,2
2022-08-01T15:26:46.985Z,2
2022-08-01T15:27:46.960Z,2
2022-08-01T15:28:47.013Z,1
2022-08-01T15:30:46.962Z,2
2022-08-01T15:31:46.965Z,2
2022-08-01T15:32:46.978Z,2
2022-08-01T15:33:46.964Z,2
2022-08-01T15:34:46.966Z,2
2022-08-01T15:35:46.968Z,2
2022-08-01T15:36:46.986Z,2
2022-08-01T15:37:46.973Z,2
2022-08-01T15:38:46.968Z,2
2022-08-01T15:39:46.970Z,2
2022-08-01T15:40:46.974Z,2
2022-08-01T15:41:46.970Z,2
2022-08-01T15:42:46.979Z,2
2022-08-01T15:43:46.977Z,2
2022-08-01T15:44:46.971Z,2
2022-08-01T15:45:48.514Z,2
2022-08-01T15:46:46.978Z,2
2022-08-01T15:47:46.974Z,2
2022-08-01T15:48:46.973Z,2
2022-08-01T15:49:46.978Z,2
2022-08-01T15:50:47.015Z,2
2022-08-01T15:51:46.980Z,2
2022-08-01T15:52:46.983Z,2
2022-08-01T15:53:47.001Z,2
2022-08-01T15:54:47.045Z,1
2022-08-01T15:55:52.278Z,2
2022-08-01T15:56:47.011Z,1
2022-08-01T15:57:46.985Z,1
2022-08-01T15:58:46.978Z,1
2022-08-01T15:59:46.989Z,2
2022-08-01T16:00:46.982Z,2
2022-08-01T16:01:47.051Z,1
2022-08-01T16:02:46.984Z,2
2022-08-01T16:03:46.989Z,2
2022-08-01T16:05:47.021Z,1
2022-08-01T16:06:47.012Z,1
2022-08-01T16:07:59.624Z,2
2022-08-01T16:08:47.043Z,1
2022-08-01T16:09:46.996Z,2
2022-08-01T16:10:46.992Z,1
2022-08-01T16:11:51.004Z,1
2022-08-01T16:12:46.997Z,2
2022-08-01T16:13:46.988Z,2
2022-08-01T16:14:46.999Z,1
2022-08-01T16:15:46.989Z,2
2022-08-01T16:16:48.145Z,2
2022-08-01T16:17:46.994Z,1
2022-08-01T16:18:46.999Z,2
2022-08-01T16:19:46.997Z,1
2022-08-01T16:20:47.007Z,2
2022-08-01T16:21:47.889Z,2
2022-08-01T16:22:47.052Z,1
2022-08-01T16:23:47.015Z,2
2022-08-01T16:24:47.009Z,2
2022-08-01T16:25:46.998Z,2
2022-08-01T16:26:47.002Z,2
2022-08-01T16:27:47.010Z,2
2022-08-01T16:28:47.007Z,2
2022-08-01T16:29:47.040Z,2
2022-08-01T16:30:50.997Z,2
2022-08-01T16:31:50.916Z,2
2022-08-01T16:32:49.028Z,2
2022-08-01T16:33:54.158Z,2
2022-08-01T16:34:47.665Z,2
2022-08-01T16:35:47.009Z,2
2022-08-01T16:36:47.008Z,2
2022-08-01T16:37:47.053Z,2
2022-08-01T16:38:47.008Z,2
2022-08-01T16:39:47.491Z,2
2022-08-01T16:40:48.010Z,2
2022-08-01T16:41:47.009Z,2
2022-08-01T16:42:47.010Z,2
2022-08-01T16:43:47.011Z,2
2022-08-01T16:44:47.021Z,2
2022-08-01T16:45:47.012Z,2
2022-08-01T16:46:49.261Z,2
2022-08-01T16:47:47.016Z,2
2022-08-01T16:48:47.011Z,2
2022-08-01T16:49:47.010Z,2
2022-08-01T16:50:47.017Z,2
2022-08-01T16:51:48.258Z,2
2022-08-01T16:52:47.018Z,2
2022-08-01T16:53:47.016Z,2
2022-08-01T16:54:47.018Z,2
2022-08-01T16:55:50.220Z,2
2022-08-01T16:56:50.478Z,2
2022-08-01T16:57:47.025Z,2
2022-08-01T16:58:47.027Z,2
2022-08-01T16:59:47.022Z,2
2022-08-01T17:00:47.027Z,2
2022-08-01T17:01:58.541Z,2
2022-08-01T17:02:47.162Z,2
2022-08-01T17:03:53.024Z,2
2022-08-01T17:04:47.025Z,2
2022-08-01T17:05:47.027Z,2
2022-08-01T17:06:47.026Z,2
2022-08-01T17:07:47.056Z,2
2022-08-01T17:08:47.287Z,2
2022-08-01T17:09:47.091Z,2
2022-08-01T17:10:47.030Z,2
2022-08-01T17:11:47.033Z,2
2022-08-01T17:12:47.042Z,2
2022-08-01T17:13:47.053Z,2
2022-08-01T17:14:47.034Z,2
2022-08-01T17:15:47.042Z,2
2022-08-01T17:16:47.038Z,2
2022-08-01T17:17:47.045Z,2
2022-08-01T17:18:47.041Z,2
2022-08-01T17:19:47.041Z,2
2022-08-01T17:20:48.423Z,2
2022-08-01T17:21:47.052Z,2
2022-08-01T17:22:47.046Z,2
2022-08-01T17:23:47.106Z,2
2022-08-01T17:24:47.048Z,2
2022-08-01T17:25:47.044Z,2
2022-08-01T17:26:47.042Z,2
2022-08-01T17:27:47.051Z,2
2022-08-01T17:28:47.052Z,2
2022-08-01T17:29:47.050Z,2